Weather at Terre Haute Regional Airport, Hulman Field

Public forecast

Using degrees Fahrenheit for public forecast. Weather courtesy of forecast.io.

Current aviation weather report (METAR) for Terre Haute Regional Airport, Hulman Field

Retrieved 2020/11/30 06:13 UTC (42 minutes ago):

KHUF 300613Z 33014G21KT 10SM -RA BKN009 BKN042 OVC050 04/02 A2986 RMK AO2 P0000 T00390022

Aviation forecast (TAF) for Terre Haute Regional Airport, Hulman Field

Retrieved 2020/11/30 06:22 UTC (33 minutes ago):

TAF KHUF 300520Z 3006/0106 34010G18KT P6SM VCSH SCT040 OVC060 FM300700 34013G24KT P6SM VCSH OVC022 FM300800 34014G25KT P6SM VCSH OVC013 FM301800 33016G27KT P6SM OVC022 FM302100 32016G25KT P6SM BKN040 FM302300 32014KT P6SM BKN070